sensor_id;sensor_type;location;lat;lon;timestamp;P1;durP1;ratioP1;P2;durP2;ratioP2
48375;SDS011;34178;50.904;11.560;2023-07-31T04:14:24;7.72;;;2.67;;
48375;SDS011;34178;50.904;11.560;2023-07-31T04:16:50;10.25;;;3.28;;
48375;SDS011;34178;50.904;11.560;2023-07-31T04:19:17;9.65;;;3.35;;
48375;SDS011;34178;50.904;11.560;2023-07-31T04:21:43;10.20;;;3.05;;
48375;SDS011;34178;50.904;11.560;2023-07-31T04:24:08;8.15;;;2.40;;
48375;SDS011;34178;50.904;11.560;2023-07-31T04:26:34;7.20;;;2.78;;
48375;SDS011;34178;50.904;11.560;2023-07-31T04:29:00;9.68;;;3.33;;
48375;SDS011;34178;50.904;11.560;2023-07-31T04:31:25;7.63;;;3.00;;
48375;SDS011;34178;50.904;11.560;2023-07-31T04:33:51;9.35;;;2.90;;
48375;SDS011;34178;50.904;11.560;2023-07-31T04:36:17;10.80;;;3.47;;
48375;SDS011;34178;50.904;11.560;2023-07-31T04:38:42;7.00;;;2.60;;
48375;SDS011;34178;50.904;11.560;2023-07-31T04:41:08;7.75;;;2.97;;
48375;SDS011;34178;50.904;11.560;2023-07-31T04:43:34;8.07;;;3.28;;
48375;SDS011;34178;50.904;11.560;2023-07-31T04:45:59;9.15;;;3.03;;
48375;SDS011;34178;50.904;11.560;2023-07-31T04:48:25;6.45;;;2.95;;
48375;SDS011;34178;50.904;11.560;2023-07-31T04:50:51;11.45;;;3.55;;
48375;SDS011;34178;50.904;11.560;2023-07-31T04:53:16;9.15;;;3.13;;
48375;SDS011;34178;50.904;11.560;2023-07-31T04:55:42;9.55;;;3.17;;
48375;SDS011;34178;50.904;11.560;2023-07-31T04:58:07;6.90;;;3.03;;
48375;SDS011;34178;50.904;11.560;2023-07-31T05:00:33;12.45;;;3.33;;
48375;SDS011;34178;50.904;11.560;2023-07-31T05:02:59;8.32;;;3.17;;
48375;SDS011;34178;50.904;11.560;2023-07-31T05:05:24;9.20;;;3.35;;
48375;SDS011;34178;50.904;11.560;2023-07-31T05:07:50;8.55;;;3.03;;
48375;SDS011;34178;50.904;11.560;2023-07-31T05:10:16;8.55;;;2.90;;
48375;SDS011;34178;50.904;11.560;2023-07-31T05:12:41;9.35;;;3.00;;
48375;SDS011;34178;50.904;11.560;2023-07-31T05:15:07;10.48;;;2.92;;
48375;SDS011;34178;50.904;11.560;2023-07-31T05:17:33;8.85;;;3.15;;
48375;SDS011;34178;50.904;11.560;2023-07-31T05:19:59;9.02;;;3.15;;
48375;SDS011;34178;50.904;11.560;2023-07-31T05:22:25;9.07;;;3.03;;
48375;SDS011;34178;50.904;11.560;2023-07-31T05:24:50;9.00;;;3.05;;
48375;SDS011;34178;50.904;11.560;2023-07-31T05:27:16;8.68;;;3.00;;
48375;SDS011;34178;50.904;11.560;2023-07-31T05:29:43;8.85;;;2.70;;
48375;SDS011;34178;50.904;11.560;2023-07-31T05:32:09;7.05;;;2.80;;
48375;SDS011;34178;50.904;11.560;2023-07-31T05:34:35;5.20;;;2.35;;
48375;SDS011;34178;50.904;11.560;2023-07-31T05:37:01;8.75;;;3.38;;
48375;SDS011;34178;50.904;11.560;2023-07-31T05:39:26;6.72;;;2.88;;
48375;SDS011;34178;50.904;11.560;2023-07-31T05:41:52;6.50;;;2.40;;
48375;SDS011;34178;50.904;11.560;2023-07-31T05:44:18;8.50;;;2.60;;
48375;SDS011;34178;50.904;11.560;2023-07-31T05:46:43;8.20;;;2.85;;
48375;SDS011;34178;50.904;11.560;2023-07-31T05:49:09;7.63;;;2.92;;
48375;SDS011;34178;50.904;11.560;2023-07-31T05:51:35;7.90;;;2.75;;
48375;SDS011;34178;50.904;11.560;2023-07-31T05:54:00;6.75;;;2.85;;
48375;SDS011;34178;50.904;11.560;2023-07-31T05:56:26;11.45;;;3.17;;
48375;SDS011;34178;50.904;11.560;2023-07-31T05:58:52;20.45;;;3.47;;
48375;SDS011;34178;50.904;11.560;2023-07-31T06:01:18;8.27;;;2.70;;
48375;SDS011;34178;50.904;11.560;2023-07-31T06:03:46;7.85;;;2.70;;
48375;SDS011;34178;50.904;11.560;2023-07-31T06:06:11;8.13;;;2.88;;
48375;SDS011;34178;50.904;11.560;2023-07-31T06:08:38;6.82;;;2.97;;
48375;SDS011;34178;50.904;11.560;2023-07-31T06:11:05;10.00;;;2.95;;
48375;SDS011;34178;50.904;11.560;2023-07-31T06:13:31;6.88;;;2.70;;
48375;SDS011;34178;50.904;11.560;2023-07-31T06:15:56;10.85;;;3.10;;
48375;SDS011;34178;50.904;11.560;2023-07-31T06:18:24;9.98;;;2.75;;
48375;SDS011;34178;50.904;11.560;2023-07-31T06:20:49;8.88;;;3.40;;
48375;SDS011;34178;50.904;11.560;2023-07-31T06:23:18;7.50;;;2.90;;
48375;SDS011;34178;50.904;11.560;2023-07-31T06:25:45;9.40;;;2.85;;
48375;SDS011;34178;50.904;11.560;2023-07-31T06:28:11;7.53;;;2.67;;
48375;SDS011;34178;50.904;11.560;2023-07-31T06:30:36;14.35;;;3.40;;
48375;SDS011;34178;50.904;11.560;2023-07-31T06:33:02;6.63;;;2.55;;
48375;SDS011;34178;50.904;11.560;2023-07-31T06:35:28;7.63;;;2.40;;
48375;SDS011;34178;50.904;11.560;2023-07-31T06:37:53;8.32;;;2.70;;
48375;SDS011;34178;50.904;11.560;2023-07-31T06:40:19;9.55;;;3.13;;
48375;SDS011;34178;50.904;11.560;2023-07-31T06:42:45;6.15;;;2.22;;
48375;SDS011;34178;50.904;11.560;2023-07-31T06:45:10;10.48;;;2.75;;
48375;SDS011;34178;50.904;11.560;2023-07-31T06:47:36;11.13;;;2.90;;
48375;SDS011;34178;50.904;11.560;2023-07-31T06:50:02;6.45;;;2.35;;
48375;SDS011;34178;50.904;11.560;2023-07-31T06:52:28;10.18;;;2.70;;
48375;SDS011;34178;50.904;11.560;2023-07-31T06:55:00;7.07;;;2.35;;
48375;SDS011;34178;50.904;11.560;2023-07-31T06:57:41;7.68;;;2.42;;
48375;SDS011;34178;50.904;11.560;2023-07-31T07:00:07;7.63;;;2.72;;
48375;SDS011;34178;50.904;11.560;2023-07-31T07:02:33;5.93;;;2.53;;
48375;SDS011;34178;50.904;11.560;2023-07-31T07:04:59;11.25;;;2.92;;
48375;SDS011;34178;50.904;11.560;2023-07-31T07:07:24;8.55;;;3.03;;
48375;SDS011;34178;50.904;11.560;2023-07-31T07:09:50;7.20;;;2.30;;
48375;SDS011;34178;50.904;11.560;2023-07-31T07:12:16;6.88;;;2.53;;
48375;SDS011;34178;50.904;11.560;2023-07-31T07:14:41;7.95;;;2.97;;
48375;SDS011;34178;50.904;11.560;2023-07-31T07:17:07;6.57;;;3.35;;
48375;SDS011;34178;50.904;11.560;2023-07-31T07:19:33;6.88;;;2.72;;
48375;SDS011;34178;50.904;11.560;2023-07-31T07:21:58;8.05;;;2.60;;
48375;SDS011;34178;50.904;11.560;2023-07-31T07:24:26;7.93;;;2.50;;
48375;SDS011;34178;50.904;11.560;2023-07-31T07:26:52;9.02;;;2.92;;
48375;SDS011;34178;50.904;11.560;2023-07-31T07:29:18;7.28;;;2.67;;
48375;SDS011;34178;50.904;11.560;2023-07-31T07:31:44;10.73;;;2.65;;
48375;SDS011;34178;50.904;11.560;2023-07-31T07:34:09;8.93;;;2.85;;
48375;SDS011;34178;50.904;11.560;2023-07-31T07:36:35;6.30;;;2.50;;
48375;SDS011;34178;50.904;11.560;2023-07-31T07:39:02;7.10;;;2.83;;
48375;SDS011;34178;50.904;11.560;2023-07-31T07:41:28;5.85;;;2.75;;
48375;SDS011;34178;50.904;11.560;2023-07-31T07:43:53;7.32;;;2.83;;
48375;SDS011;34178;50.904;11.560;2023-07-31T07:46:19;8.48;;;2.85;;
48375;SDS011;34178;50.904;11.560;2023-07-31T07:48:45;8.38;;;2.67;;
48375;SDS011;34178;50.904;11.560;2023-07-31T07:51:10;9.40;;;2.67;;
48375;SDS011;34178;50.904;11.560;2023-07-31T07:53:36;8.55;;;2.78;;
48375;SDS011;34178;50.904;11.560;2023-07-31T07:56:01;7.97;;;3.03;;
48375;SDS011;34178;50.904;11.560;2023-07-31T07:58:27;9.98;;;3.08;;
48375;SDS011;34178;50.904;11.560;2023-07-31T08:00:53;8.57;;;2.92;;
48375;SDS011;34178;50.904;11.560;2023-07-31T08:03:18;6.35;;;2.65;;
48375;SDS011;34178;50.904;11.560;2023-07-31T08:05:44;6.75;;;2.63;;
48375;SDS011;34178;50.904;11.560;2023-07-31T08:08:16;7.38;;;2.90;;
48375;SDS011;34178;50.904;11.560;2023-07-31T08:10:42;7.68;;;3.05;;
48375;SDS011;34178;50.904;11.560;2023-07-31T08:13:09;10.00;;;2.70;;
48375;SDS011;34178;50.904;11.560;2023-07-31T08:15:36;6.63;;;2.95;;
48375;SDS011;34178;50.904;11.560;2023-07-31T08:18:02;8.27;;;2.63;;
48375;SDS011;34178;50.904;11.560;2023-07-31T08:20:28;9.00;;;2.58;;
48375;SDS011;34178;50.904;11.560;2023-07-31T08:22:53;8.15;;;3.15;;
48375;SDS011;34178;50.904;11.560;2023-07-31T08:25:19;7.90;;;3.05;;
48375;SDS011;34178;50.904;11.560;2023-07-31T08:27:45;5.85;;;2.85;;
48375;SDS011;34178;50.904;11.560;2023-07-31T08:30:11;7.32;;;2.97;;
48375;SDS011;34178;50.904;11.560;2023-07-31T08:32:37;6.35;;;2.40;;
48375;SDS011;34178;50.904;11.560;2023-07-31T08:35:03;9.07;;;3.22;;
48375;SDS011;34178;50.904;11.560;2023-07-31T08:37:29;4.93;;;2.40;;
48375;SDS011;34178;50.904;11.560;2023-07-31T08:39:54;8.35;;;2.83;;
48375;SDS011;34178;50.904;11.560;2023-07-31T08:42:20;7.28;;;2.72;;
48375;SDS011;34178;50.904;11.560;2023-07-31T08:44:46;8.07;;;2.67;;
48375;SDS011;34178;50.904;11.560;2023-07-31T08:47:13;9.18;;;2.75;;
48375;SDS011;34178;50.904;11.560;2023-07-31T08:49:40;8.32;;;2.58;;
48375;SDS011;34178;50.904;11.560;2023-07-31T08:52:07;6.97;;;2.22;;
48375;SDS011;34178;50.904;11.560;2023-07-31T08:54:32;6.45;;;3.13;;
48375;SDS011;34178;50.904;11.560;2023-07-31T08:56:58;7.10;;;2.90;;
48375;SDS011;34178;50.904;11.560;2023-07-31T08:59:26;9.45;;;3.00;;
48375;SDS011;34178;50.904;11.560;2023-07-31T09:01:55;6.10;;;2.40;;
48375;SDS011;34178;50.904;11.560;2023-07-31T09:04:26;9.00;;;2.92;;
48375;SDS011;34178;50.904;11.560;2023-07-31T09:06:53;5.93;;;2.40;;
48375;SDS011;34178;50.904;11.560;2023-07-31T09:09:24;7.53;;;3.13;;
48375;SDS011;34178;50.904;11.560;2023-07-31T09:11:50;9.77;;;2.72;;
48375;SDS011;34178;50.904;11.560;2023-07-31T09:14:17;7.80;;;3.35;;
48375;SDS011;34178;50.904;11.560;2023-07-31T09:16:56;7.05;;;3.28;;
48375;SDS011;34178;50.904;11.560;2023-07-31T09:19:25;8.13;;;2.67;;
48375;SDS011;34178;50.904;11.560;2023-07-31T09:21:52;8.18;;;3.10;;
48375;SDS011;34178;50.904;11.560;2023-07-31T09:24:27;9.98;;;2.95;;
48375;SDS011;34178;50.904;11.560;2023-07-31T09:26:55;8.10;;;2.95;;
48375;SDS011;34178;50.904;11.560;2023-07-31T09:29:22;7.80;;;3.03;;
48375;SDS011;34178;50.904;11.560;2023-07-31T09:31:48;8.13;;;2.83;;
48375;SDS011;34178;50.904;11.560;2023-07-31T09:34:15;6.18;;;2.85;;
48375;SDS011;34178;50.904;11.560;2023-07-31T09:36:45;7.57;;;3.05;;
48375;SDS011;34178;50.904;11.560;2023-07-31T09:39:13;6.53;;;2.88;;
48375;SDS011;34178;50.904;11.560;2023-07-31T09:41:44;9.70;;;2.72;;
48375;SDS011;34178;50.904;11.560;2023-07-31T09:44:18;11.25;;;3.30;;
48375;SDS011;34178;50.904;11.560;2023-07-31T09:46:43;6.05;;;2.63;;
48375;SDS011;34178;50.904;11.560;2023-07-31T09:49:10;5.75;;;2.53;;
48375;SDS011;34178;50.904;11.560;2023-07-31T09:51:37;6.53;;;2.78;;
48375;SDS011;34178;50.904;11.560;2023-07-31T09:56:41;9.88;;;2.88;;
48375;SDS011;34178;50.904;11.560;2023-07-31T09:59:10;7.20;;;3.05;;
48375;SDS011;34178;50.904;11.560;2023-07-31T10:01:45;9.50;;;3.30;;
48375;SDS011;34178;50.904;11.560;2023-07-31T10:04:12;7.75;;;3.20;;
48375;SDS011;34178;50.904;11.560;2023-07-31T10:06:39;7.15;;;2.97;;
48375;SDS011;34178;50.904;11.560;2023-07-31T10:09:11;7.30;;;2.60;;
48375;SDS011;34178;50.904;11.560;2023-07-31T10:11:42;9.45;;;3.45;;
48375;SDS011;34178;50.904;11.560;2023-07-31T10:14:18;10.98;;;3.30;;
48375;SDS011;34178;50.904;11.560;2023-07-31T10:16:45;7.30;;;3.20;;
48375;SDS011;34178;50.904;11.560;2023-07-31T10:19:12;8.25;;;3.38;;
48375;SDS011;34178;50.904;11.560;2023-07-31T10:21:37;6.38;;;2.70;;
48375;SDS011;34178;50.904;11.560;2023-07-31T10:24:06;6.82;;;3.08;;
48375;SDS011;34178;50.904;11.560;2023-07-31T10:26:33;6.18;;;2.90;;
48375;SDS011;34178;50.904;11.560;2023-07-31T10:29:02;7.93;;;3.38;;
48375;SDS011;34178;50.904;11.560;2023-07-31T10:31:29;8.13;;;3.15;;
48375;SDS011;34178;50.904;11.560;2023-07-31T10:33:56;7.20;;;3.08;;
48375;SDS011;34178;50.904;11.560;2023-07-31T10:36:24;11.27;;;3.40;;
48375;SDS011;34178;50.904;11.560;2023-07-31T10:38:50;10.57;;;3.22;;
48375;SDS011;34178;50.904;11.560;2023-07-31T10:41:16;8.20;;;3.33;;
48375;SDS011;34178;50.904;11.560;2023-07-31T10:43:42;7.25;;;3.10;;
48375;SDS011;34178;50.904;11.560;2023-07-31T10:46:11;7.57;;;3.60;;
48375;SDS011;34178;50.904;11.560;2023-07-31T14:12:05;8.13;;;2.80;;
48375;SDS011;34178;50.904;11.560;2023-07-31T14:14:31;10.45;;;2.70;;
48375;SDS011;34178;50.904;11.560;2023-07-31T14:16:59;8.18;;;2.72;;
48375;SDS011;34178;50.904;11.560;2023-07-31T14:19:24;10.85;;;3.33;;
48375;SDS011;34178;50.904;11.560;2023-07-31T14:21:50;7.43;;;2.95;;
48375;SDS011;34178;50.904;11.560;2023-07-31T14:24:16;5.53;;;2.50;;
48375;SDS011;34178;50.904;11.560;2023-07-31T14:26:41;8.55;;;3.38;;
48375;SDS011;34178;50.904;11.560;2023-07-31T20:40:31;5.70;;;2.90;;
48375;SDS011;34178;50.904;11.560;2023-07-31T20:42:57;9.45;;;3.22;;
48375;SDS011;34178;50.904;11.560;2023-07-31T20:45:28;8.05;;;3.08;;
48375;SDS011;34178;50.904;11.560;2023-07-31T20:47:56;7.85;;;2.83;;
48375;SDS011;34178;50.904;11.560;2023-07-31T20:50:24;6.70;;;3.13;;
48375;SDS011;34178;50.904;11.560;2023-07-31T20:52:50;8.18;;;3.22;;
48375;SDS011;34178;50.904;11.560;2023-07-31T20:55:18;10.85;;;3.50;;
48375;SDS011;34178;50.904;11.560;2023-07-31T20:57:44;8.40;;;3.28;;
48375;SDS011;34178;50.904;11.560;2023-07-31T21:00:09;7.55;;;3.60;;
48375;SDS011;34178;50.904;11.560;2023-07-31T21:02:39;7.25;;;3.17;;
48375;SDS011;34178;50.904;11.560;2023-07-31T21:05:05;8.57;;;3.60;;
48375;SDS011;34178;50.904;11.560;2023-07-31T21:07:31;8.65;;;3.42;;
48375;SDS011;34178;50.904;11.560;2023-07-31T21:09:56;9.23;;;3.30;;
48375;SDS011;34178;50.904;11.560;2023-07-31T21:12:22;8.20;;;3.75;;
48375;SDS011;34178;50.904;11.560;2023-07-31T21:14:48;7.45;;;3.45;;
48375;SDS011;34178;50.904;11.560;2023-07-31T21:17:13;8.07;;;3.63;;
48375;SDS011;34178;50.904;11.560;2023-07-31T21:19:42;11.10;;;3.65;;
48375;SDS011;34178;50.904;11.560;2023-07-31T21:22:09;11.23;;;3.75;;
48375;SDS011;34178;50.904;11.560;2023-07-31T21:24:35;8.93;;;3.97;;
48375;SDS011;34178;50.904;11.560;2023-07-31T21:27:00;10.52;;;4.32;;
48375;SDS011;34178;50.904;11.560;2023-07-31T21:29:26;8.35;;;3.53;;
48375;SDS011;34178;50.904;11.560;2023-07-31T21:31:51;7.43;;;3.50;;
48375;SDS011;34178;50.904;11.560;2023-07-31T21:34:17;10.48;;;3.67;;
48375;SDS011;34178;50.904;11.560;2023-07-31T21:36:43;8.73;;;3.35;;
48375;SDS011;34178;50.904;11.560;2023-07-31T21:39:08;7.65;;;3.67;;
48375;SDS011;34178;50.904;11.560;2023-07-31T21:41:35;8.70;;;3.90;;
48375;SDS011;34178;50.904;11.560;2023-07-31T21:44:01;10.13;;;4.05;;
48375;SDS011;34178;50.904;11.560;2023-07-31T21:46:27;8.27;;;3.63;;
48375;SDS011;34178;50.904;11.560;2023-07-31T21:48:53;7.80;;;3.75;;
48375;SDS011;34178;50.904;11.560;2023-07-31T21:51:19;10.95;;;4.03;;
48375;SDS011;34178;50.904;11.560;2023-07-31T21:53:45;8.73;;;4.30;;
48375;SDS011;34178;50.904;11.560;2023-07-31T21:56:10;8.25;;;3.78;;
48375;SDS011;34178;50.904;11.560;2023-07-31T21:58:36;8.27;;;3.95;;
48375;SDS011;34178;50.904;11.560;2023-07-31T22:01:02;10.15;;;4.32;;
48375;SDS011;34178;50.904;11.560;2023-07-31T22:03:28;9.25;;;4.05;;
48375;SDS011;34178;50.904;11.560;2023-07-31T22:05:53;10.55;;;4.63;;
48375;SDS011;34178;50.904;11.560;2023-07-31T22:08:19;10.30;;;4.60;;
48375;SDS011;34178;50.904;11.560;2023-07-31T22:10:45;10.10;;;4.35;;
48375;SDS011;34178;50.904;11.560;2023-07-31T22:13:10;10.13;;;4.55;;
48375;SDS011;34178;50.904;11.560;2023-07-31T22:15:36;9.02;;;4.30;;
48375;SDS011;34178;50.904;11.560;2023-07-31T22:18:01;10.15;;;4.43;;
48375;SDS011;34178;50.904;11.560;2023-07-31T22:20:27;9.70;;;4.47;;
48375;SDS011;34178;50.904;11.560;2023-07-31T22:22:53;9.13;;;4.60;;
48375;SDS011;34178;50.904;11.560;2023-07-31T22:25:18;8.27;;;4.72;;
48375;SDS011;34178;50.904;11.560;2023-07-31T22:27:44;8.98;;;4.53;;
48375;SDS011;34178;50.904;11.560;2023-07-31T22:30:10;10.00;;;4.32;;
48375;SDS011;34178;50.904;11.560;2023-07-31T22:32:36;8.30;;;4.32;;
48375;SDS011;34178;50.904;11.560;2023-07-31T22:35:02;8.73;;;4.35;;
48375;SDS011;34178;50.904;11.560;2023-07-31T22:37:27;7.88;;;3.88;;
48375;SDS011;34178;50.904;11.560;2023-07-31T22:39:53;8.45;;;4.18;;
48375;SDS011;34178;50.904;11.560;2023-07-31T22:42:19;8.07;;;4.15;;
48375;SDS011;34178;50.904;11.560;2023-07-31T22:44:44;8.63;;;4.22;;
48375;SDS011;34178;50.904;11.560;2023-07-31T22:47:10;9.93;;;3.97;;
48375;SDS011;34178;50.904;11.560;2023-07-31T22:49:35;7.63;;;4.32;;
48375;SDS011;34178;50.904;11.560;2023-07-31T22:52:01;9.10;;;3.80;;
48375;SDS011;34178;50.904;11.560;2023-07-31T22:54:27;6.88;;;3.15;;
48375;SDS011;34178;50.904;11.560;2023-07-31T22:56:52;6.70;;;3.40;;
48375;SDS011;34178;50.904;11.560;2023-07-31T22:59:20;6.57;;;3.10;;
48375;SDS011;34178;50.904;11.560;2023-07-31T23:01:46;8.57;;;3.45;;
48375;SDS011;34178;50.904;11.560;2023-07-31T23:04:11;6.57;;;3.63;;
48375;SDS011;34178;50.904;11.560;2023-07-31T23:06:37;7.38;;;2.97;;
48375;SDS011;34178;50.904;11.560;2023-07-31T23:09:03;7.55;;;2.83;;
48375;SDS011;34178;50.904;11.560;2023-07-31T23:11:28;7.55;;;3.30;;
48375;SDS011;34178;50.904;11.560;2023-07-31T23:13:54;6.07;;;2.90;;
48375;SDS011;34178;50.904;11.560;2023-07-31T23:16:20;6.35;;;2.78;;
48375;SDS011;34178;50.904;11.560;2023-07-31T23:18:45;5.47;;;2.40;;
48375;SDS011;34178;50.904;11.560;2023-07-31T23:21:11;5.40;;;2.35;;
48375;SDS011;34178;50.904;11.560;2023-07-31T23:23:37;6.72;;;2.95;;
48375;SDS011;34178;50.904;11.560;2023-07-31T23:26:02;5.07;;;2.28;;
48375;SDS011;34178;50.904;11.560;2023-07-31T23:28:28;8.65;;;2.75;;
48375;SDS011;34178;50.904;11.560;2023-07-31T23:31:00;5.15;;;2.50;;
48375;SDS011;34178;50.904;11.560;2023-07-31T23:33:31;5.75;;;2.35;;
48375;SDS011;34178;50.904;11.560;2023-07-31T23:35:57;7.72;;;3.28;;
48375;SDS011;34178;50.904;11.560;2023-07-31T23:38:31;7.93;;;3.40;;
48375;SDS011;34178;50.904;11.560;2023-07-31T23:40:57;10.10;;;3.20;;
48375;SDS011;34178;50.904;11.560;2023-07-31T23:43:23;5.30;;;2.80;;
48375;SDS011;34178;50.904;11.560;2023-07-31T23:45:48;6.35;;;3.25;;
48375;SDS011;34178;50.904;11.560;2023-07-31T23:48:14;6.82;;;3.22;;
48375;SDS011;34178;50.904;11.560;2023-07-31T23:50:39;9.45;;;3.50;;
48375;SDS011;34178;50.904;11.560;2023-07-31T23:53:05;9.20;;;3.67;;
48375;SDS011;34178;50.904;11.560;2023-07-31T23:55:31;8.05;;;3.95;;
48375;SDS011;34178;50.904;11.560;2023-07-31T23:57:58;8.02;;;3.65;;
